Time;durP1;ratioP1;P1;durP2;ratioP2;P2;SDS_P1;SDS_P2;PMS_P1;PMS_P2;Temp;Humidity;BMP_temperature;BMP_pressure;BME280_temperature;BME280_humidity;BME280_pressure;Samples;Min_cycle;Max_cycle;Signal;HPM_P1;HPM_P2
2021/06/05 00:01:50;;;;;;;16.90;6.00;;;;;;;13.12;57.12;100985.98;126220;1099;104325;-79
2021/06/05 00:04:21;;;;;;;13.07;5.47;;;;;;;13.10;57.47;100987.64;126258;1099;104249;-79
2021/06/05 00:06:50;;;;;;;13.57;6.13;;;;;;;13.05;57.48;100986.61;126242;1099;104271;-79
2021/06/05 00:09:22;;;;;;;14.97;6.00;;;;;;;13.05;57.62;100989.24;126221;1099;104194;-78
2021/06/05 00:12:05;;;;;;;14.30;5.90;;;;;;;13.03;57.75;100986.55;126236;1099;104277;-79
2021/06/05 00:14:35;;;;;;;12.27;6.03;;;;;;;12.99;57.59;100978.50;126289;1097;104136;-79
2021/06/05 00:17:04;;;;;;;14.73;6.27;;;;;;;12.96;57.60;100976.65;126317;1097;104189;-78
2021/06/05 00:19:33;;;;;;;16.20;6.00;;;;;;;12.93;57.80;100977.46;126204;1099;104204;-78
2021/06/05 00:22:03;;;;;;;15.37;6.03;;;;;;;12.90;57.97;100982.63;126354;1098;104107;-81
2021/06/05 00:24:33;;;;;;;12.80;5.90;;;;;;;12.88;57.81;100980.77;126301;1099;104245;-80
2021/06/05 00:27:02;;;;;;;9.57;5.10;;;;;;;12.87;57.83;100979.88;126235;1099;104386;-79
2021/06/05 00:29:31;;;;;;;17.43;6.70;;;;;;;12.86;58.41;100985.10;126226;1098;104160;-79
2021/06/05 00:32:01;;;;;;;11.30;5.40;;;;;;;12.83;58.12;100982.36;126273;1099;104245;-80
2021/06/05 00:34:30;;;;;;;13.50;5.90;;;;;;;12.81;58.44;100986.66;126241;1099;104210;-80
2021/06/05 00:36:59;;;;;;;11.03;5.70;;;;;;;12.80;58.33;100975.23;126249;1099;104146;-81
2021/06/05 00:39:28;;;;;;;13.13;5.60;;;;;;;12.81;58.49;100970.86;126244;1099;105561;-79
2021/06/05 00:41:58;;;;;;;12.10;5.60;;;;;;;12.82;58.54;100967.39;126170;1099;104249;-80
2021/06/05 00:44:27;;;;;;;14.57;5.40;;;;;;;12.82;58.48;100967.39;126303;1098;104165;-80
2021/06/05 00:46:58;;;;;;;11.83;5.40;;;;;;;12.80;58.65;100963.83;126286;1099;104137;-79
2021/06/05 00:49:27;;;;;;;13.40;5.87;;;;;;;12.75;58.79;100979.47;126227;1099;104149;-79
2021/06/05 00:52:01;;;;;;;15.00;6.03;;;;;;;12.70;58.88;100975.75;126258;1098;104146;-79
2021/06/05 00:54:34;;;;;;;18.40;6.10;;;;;;;12.64;58.99;100972.94;126324;1099;104179;-79
2021/06/05 00:57:07;;;;;;;14.53;6.30;;;;;;;12.58;59.07;100969.23;126275;1097;104162;-79
2021/06/05 00:59:36;;;;;;;;;;;;;;;12.55;59.82;100963.86;126309;1099;104239;-79
2021/06/05 01:02:07;;;;;;;13.90;5.87;;;;;;;12.51;59.26;100972.51;126280;1099;104370;-80
2021/06/05 01:04:40;;;;;;;13.10;5.93;;;;;;;12.48;59.35;100974.11;126275;1099;104236;-81
2021/06/05 01:07:16;;;;;;;13.63;5.43;;;;;;;12.45;59.52;100972.29;126315;1097;104185;-81
2021/06/05 01:09:57;;;;;;;12.57;5.63;;;;;;;12.42;59.62;100972.18;126275;1099;104165;-79
2021/06/05 01:12:34;;;;;;;14.90;5.63;;;;;;;12.40;59.77;100979.10;126305;1099;104283;-80
2021/06/05 01:15:12;;;;;;;16.07;6.23;;;;;;;12.35;59.71;100968.41;126306;1099;104127;-79
2021/06/05 01:17:48;;;;;;;12.67;5.80;;;;;;;12.32;59.91;100965.66;126262;1099;104592;-80
2021/06/05 01:20:27;;;;;;;11.80;5.67;;;;;;;12.29;59.94;100965.55;126236;1099;104313;-80
2021/06/05 01:23:15;;;;;;;14.33;5.47;;;;;;;12.28;59.94;100960.23;126316;1099;104216;-80
2021/06/05 01:26:03;;;;;;;13.60;5.70;;;;;;;12.26;59.79;100965.45;126313;1099;104190;-78
2021/06/05 01:28:41;;;;;;;14.93;5.97;;;;;;;12.23;60.14;100974.14;126267;1099;105197;-78
2021/06/05 01:31:27;;;;;;;10.90;5.00;;;;;;;12.22;60.02;100964.45;126164;1099;104137;-79
2021/06/05 01:33:58;;;;;;;13.88;5.80;;;;;;;12.22;60.15;100969.70;126214;1099;104261;-80
2021/06/05 01:36:29;;;;;;;14.27;5.73;;;;;;;12.20;60.36;100959.95;126337;1099;104267;-80
2021/06/05 01:39:02;;;;;;;15.90;5.60;;;;;;;12.18;60.33;100964.28;126297;1099;104149;-80
2021/06/05 01:41:36;;;;;;;13.37;5.70;;;;;;;12.15;60.40;100967.68;126214;1098;104215;-79
2021/06/05 01:44:08;;;;;;;13.77;5.63;;;;;;;12.12;60.37;100964.94;126201;1099;104214;-79
2021/06/05 01:46:42;;;;;;;13.07;4.80;;;;;;;12.11;60.43;100960.54;126312;1099;104258;-79
2021/06/05 01:49:12;;;;;;;15.60;5.73;;;;;;;12.09;60.61;100967.48;126225;1099;104139;-79
2021/06/05 01:51:51;;;;;;;10.45;4.70;;;;;;;12.07;60.75;100966.52;126284;1099;104141;-81
2021/06/05 01:54:28;;;;;;;8.37;4.83;;;;;;;12.06;60.92;100962.11;126255;1099;104270;-79
2021/06/05 01:57:02;;;;;;;11.83;5.43;;;;;;;12.04;60.79;100964.69;126267;1099;104155;-80
2021/06/05 01:59:45;;;;;;;12.07;5.00;;;;;;;12.02;60.95;100962.83;126312;1099;104130;-79
2021/06/05 02:02:15;;;;;;;12.00;5.10;;;;;;;12.00;60.92;100956.63;126191;1099;104621;-79
2021/06/05 02:04:47;;;;;;;15.70;5.27;;;;;;;12.00;60.71;100959.25;126297;1099;104053;-80
2021/06/05 02:07:18;;;;;;;12.47;5.13;;;;;;;12.00;60.88;100957.51;126307;1099;104354;-80
2021/06/05 02:09:51;;;;;;;13.50;5.50;;;;;;;12.01;61.03;100954.05;126268;1099;104592;-79
2021/06/05 02:12:35;;;;;;;14.13;4.90;;;;;;;12.01;60.78;100958.39;126254;1098;104165;-79
2021/06/05 02:15:20;;;;;;;11.03;5.13;;;;;;;12.01;61.17;100956.69;126257;1099;104268;-80
2021/06/05 02:17:53;;;;;;;12.60;5.43;;;;;;;12.01;61.26;100947.88;126316;1099;104216;-79
2021/06/05 02:20:29;;;;;;;10.10;5.00;;;;;;;12.01;60.97;100956.69;126321;1098;104131;-80
2021/06/05 02:23:07;;;;;;;14.00;5.37;;;;;;;12.00;61.24;100954.88;126235;1099;107833;-79
2021/06/05 02:25:36;;;;;;;9.87;4.87;;;;;;;12.00;61.25;100961.88;126282;1099;104243;-79
2021/06/05 02:28:08;;;;;;;9.70;4.50;;;;;;;11.99;61.55;100957.45;126308;1099;104149;-80
2021/06/05 02:30:39;;;;;;;11.50;5.20;;;;;;;12.00;61.20;100956.63;126313;1097;104201;-79
2021/06/05 02:33:09;;;;;;;8.77;4.53;;;;;;;11.99;61.34;100962.71;126265;1099;104153;-79
2021/06/05 02:35:43;;;;;;;;;;;;;;;11.99;61.62;100955.70;126304;1099;104268;-79
2021/06/05 02:38:22;;;;;;;13.63;5.13;;;;;;;11.99;61.46;100965.34;126280;1099;104669;-81
2021/06/05 02:40:52;;;;;;;15.07;5.30;;;;;;;11.98;61.42;100963.54;126223;1099;104225;-79
2021/06/05 02:43:28;;;;;;;8.73;4.57;;;;;;;11.95;61.50;100963.42;126193;1099;104163;-78
2021/06/05 02:46:06;;;;;;;9.40;4.57;;;;;;;11.94;61.55;100966.91;126232;1099;104223;-80
2021/06/05 02:48:41;;;;;;;10.40;4.67;;;;;;;11.96;61.57;100962.59;126270;1099;104216;-80
2021/06/05 02:51:11;;;;;;;12.43;4.67;;;;;;;11.98;61.51;100961.83;126293;1099;104288;-80
2021/06/05 02:53:40;;;;;;;8.53;5.00;;;;;;;12.00;61.56;100968.03;126248;1099;112108;-80
2021/06/05 02:56:11;;;;;;;11.70;5.00;;;;;;;12.00;61.82;100968.03;126339;1099;102816;-80
2021/06/05 02:58:41;;;;;;;11.73;4.90;;;;;;;12.01;61.78;100961.02;126303;1097;104214;-80
2021/06/05 03:01:14;;;;;;;10.83;4.67;;;;;;;12.03;61.96;100959.37;126217;1099;104213;-80
2021/06/05 03:03:44;;;;;;;12.13;5.07;;;;;;;12.04;61.83;100967.31;126210;1099;104242;-80
2021/06/05 03:06:15;;;;;;;11.50;4.93;;;;;;;12.01;61.90;100963.66;126297;1099;104169;-79
2021/06/05 03:08:45;;;;;;;11.90;5.13;;;;;;;12.00;61.82;100962.77;126307;1099;104133;-80
2021/06/05 03:11:18;;;;;;;13.33;4.80;;;;;;;11.99;61.88;100968.86;126274;1099;103646;-79
2021/06/05 03:13:47;;;;;;;;;;;;;;;11.98;62.33;100960.91;126267;1099;104147;-81
2021/06/05 03:16:18;;;;;;;9.60;4.50;;;;;;;11.95;62.16;100956.45;126334;1099;104175;-79
2021/06/05 03:18:50;;;;;;;10.17;4.80;;;;;;;11.95;62.07;100959.08;126298;1099;104126;-80
2021/06/05 03:21:21;;;;;;;13.07;4.70;;;;;;;11.95;62.24;100972.23;126329;1098;104198;-79
2021/06/05 03:23:52;;;;;;;12.90;4.85;;;;;;;11.94;62.36;100966.91;126236;1099;104178;-80
2021/06/05 03:26:31;;;;;;;10.60;4.73;;;;;;;11.95;62.54;100963.42;126264;1098;104246;-81
2021/06/05 03:29:01;;;;;;;11.70;4.77;;;;;;;11.93;62.21;100966.00;126253;1099;104251;-80
2021/06/05 03:31:30;;;;;;;9.83;5.00;;;;;;;11.93;62.23;100962.48;126279;1099;104200;-79
2021/06/05 03:34:04;;;;;;;9.90;4.40;;;;;;;11.94;62.22;100965.17;126260;1099;104258;-80
2021/06/05 03:36:33;;;;;;;11.90;4.83;;;;;;;11.93;62.51;100963.37;126294;1099;104368;-80
2021/06/05 03:39:05;;;;;;;13.17;5.20;;;;;;;11.91;62.63;100956.25;126291;1099;104290;-79
2021/06/05 03:41:37;;;;;;;9.93;5.07;;;;;;;11.92;62.49;100963.27;126301;1097;104146;-80
2021/06/05 03:44:07;;;;;;;11.47;4.67;;;;;;;11.93;62.47;100959.85;126227;1099;104229;-79
2021/06/05 03:46:36;;;;;;;11.30;4.67;;;;;;;11.96;62.43;100960.85;126361;1098;104233;-81
2021/06/05 03:49:09;;;;;;;12.93;5.20;;;;;;;12.01;62.78;100961.94;126275;1099;104303;-80
2021/06/05 03:51:38;;;;;;;10.37;4.90;;;;;;;12.05;62.76;100960.31;126158;1099;104169;-80
2021/06/05 03:54:10;;;;;;;13.00;5.17;;;;;;;12.10;62.69;100963.11;126098;1099;104188;-79
2021/06/05 03:56:39;;;;;;;9.63;4.60;;;;;;;12.15;62.67;100962.42;126188;1099;104290;-79
2021/06/05 03:59:10;;;;;;;11.43;4.77;;;;;;;12.22;62.60;100955.67;126185;1099;104297;-80
2021/06/05 04:01:40;;;;;;;8.10;4.57;;;;;;;12.25;62.61;100961.05;126184;1099;104275;-80
2021/06/05 04:04:09;;;;;;;11.73;5.03;;;;;;;12.26;62.61;100964.56;125511;1099;104316;-78
2021/06/05 04:06:39;;;;;;;12.30;5.27;;;;;;;12.23;62.80;100965.33;125262;1099;104248;-80
2021/06/05 04:09:10;;;;;;;11.43;5.00;;;;;;;12.23;62.81;100963.62;125290;1102;104201;-79
2021/06/05 04:11:39;;;;;;;8.27;4.60;;;;;;;12.23;62.98;100960.07;125207;1099;104249;-80
2021/06/05 04:14:10;;;;;;;9.73;4.70;;;;;;;12.24;62.87;100959.24;125350;1099;104397;-79
2021/06/05 04:16:39;;;;;;;10.80;4.80;;;;;;;12.26;62.93;100960.19;126138;1099;104153;-79
2021/06/05 04:19:08;;;;;;;9.27;4.43;;;;;;;12.30;62.55;100961.21;125350;1099;104165;-79
2021/06/05 04:21:40;;;;;;;8.67;4.67;;;;;;;12.32;63.11;100959.52;126188;1099;104162;-79
2021/06/05 04:24:09;;;;;;;13.33;5.30;;;;;;;12.37;62.92;100957.94;125664;1099;104172;-80
2021/06/05 04:26:39;;;;;;;13.83;5.20;;;;;;;12.42;62.96;100966.91;126157;1099;104322;-79
2021/06/05 04:29:10;;;;;;;12.97;4.97;;;;;;;12.46;62.86;100960.89;126245;1099;104162;-80
2021/06/05 04:31:39;;;;;;;12.13;4.80;;;;;;;12.51;63.16;100946.19;126293;1099;104136;-80
2021/06/05 04:34:08;;;;;;;12.63;4.80;;;;;;;12.59;62.99;100949.97;126191;1099;104175;-79
2021/06/05 04:36:37;;;;;;;10.37;4.43;;;;;;;12.68;63.11;100945.86;126293;1099;104204;-81
2021/06/05 04:39:07;;;;;;;11.57;4.73;;;;;;;12.77;63.15;100946.17;126264;1099;102110;-80
2021/06/05 04:41:36;;;;;;;10.53;4.90;;;;;;;12.85;62.82;100951.70;126305;1099;104294;-81
2021/06/05 04:44:06;;;;;;;19.13;5.37;;;;;;;12.92;62.91;100940.53;126271;1099;104293;-79
2021/06/05 04:46:35;;;;;;;14.80;5.00;;;;;;;13.01;63.21;100950.45;126176;1099;104573;-80
2021/06/05 04:49:07;;;;;;;12.60;4.70;;;;;;;13.06;63.15;100948.89;126345;1099;104245;-80
2021/06/05 04:51:38;;;;;;;14.43;5.17;;;;;;;13.12;63.15;100949.09;126305;1099;104149;-79
2021/06/05 04:54:08;;;;;;;17.63;5.50;;;;;;;13.18;63.22;100948.38;125255;1099;104294;-79
2021/06/05 04:56:40;;;;;;;14.23;4.60;;;;;;;13.23;63.29;100945.05;126156;1099;104287;-80
2021/06/05 04:59:12;;;;;;;13.17;5.03;;;;;;;13.30;63.08;100943.50;126198;1099;104277;-79
2021/06/05 05:01:41;;;;;;;11.63;4.90;;;;;;;13.39;63.16;100945.58;126193;1099;104171;-80
2021/06/05 05:04:11;;;;;;;13.17;5.20;;;;;;;13.50;63.42;100949.43;126042;1099;104182;-79
2021/06/05 05:06:41;;;;;;;13.07;4.90;;;;;;;13.64;63.20;100942.83;125208;1099;104152;-80
2021/06/05 05:09:13;;;;;;;12.37;5.00;;;;;;;13.79;63.32;100942.41;125231;1099;104303;-81
2021/06/05 05:11:42;;;;;;;13.93;4.80;;;;;;;13.94;62.70;100941.94;125334;1099;104230;-79
2021/06/05 05:14:12;;;;;;;13.47;5.10;;;;;;;14.10;63.48;100934.47;126225;1099;104155;-79
2021/06/05 05:16:41;;;;;;;13.60;5.00;;;;;;;14.23;63.68;100920.78;126180;1099;119002;-81
2021/06/05 05:19:11;;;;;;;10.83;4.63;;;;;;;14.39;62.96;100933.52;126332;1099;104316;-81
2021/06/05 05:21:42;;;;;;;13.30;5.00;;;;;;;14.54;63.41;100922.48;126244;1099;104185;-80
2021/06/05 05:24:12;;;;;;;10.60;4.33;;;;;;;14.69;63.47;100929.05;126196;1099;104289;-79
2021/06/05 05:26:41;;;;;;;13.30;4.30;;;;;;;14.84;63.31;100932.08;126248;1099;104258;-79
2021/06/05 05:29:11;;;;;;;10.47;4.63;;;;;;;14.99;62.68;100928.94;126259;1099;104251;-80
2021/06/05 05:31:40;;;;;;;10.17;4.50;;;;;;;15.13;62.21;100928.36;126266;1099;104418;-80
2021/06/05 05:34:10;;;;;;;11.73;5.17;;;;;;;15.24;62.02;100918.95;126288;1098;104149;-79
2021/06/05 05:36:41;;;;;;;15.35;4.85;;;;;;;15.36;62.90;100924.50;126159;1098;104146;-80
2021/06/05 05:39:13;;;;;;;15.43;5.23;;;;;;;15.48;62.12;100917.72;126290;1099;104172;-79
2021/06/05 05:41:43;;;;;;;14.13;4.63;;;;;;;15.61;62.77;100925.05;126229;1099;104146;-79
2021/06/05 05:44:13;;;;;;;13.93;4.47;;;;;;;15.73;62.29;100920.03;126236;1099;104172;-80
2021/06/05 05:46:42;;;;;;;15.97;5.00;;;;;;;15.88;62.62;100908.00;126198;1099;104207;-79
2021/06/05 05:49:11;;;;;;;13.67;4.20;;;;;;;16.01;62.18;100912.70;126301;1099;104137;-79
2021/06/05 05:51:40;;;;;;;14.13;4.73;;;;;;;16.15;61.66;100918.27;126298;1098;104144;-78
2021/06/05 05:54:10;;;;;;;19.30;5.27;;;;;;;16.29;62.26;100918.53;126275;1098;104228;-79
2021/06/05 05:56:39;;;;;;;18.67;5.83;;;;;;;16.39;61.84;100916.94;126218;1098;104136;-81
2021/06/05 05:59:08;;;;;;;17.47;4.80;;;;;;;16.50;61.60;100913.64;126324;1097;104255;-81
2021/06/05 06:01:38;;;;;;;20.30;4.83;;;;;;;16.60;61.36;100914.69;126292;1099;104840;-80
2021/06/05 06:04:07;;;;;;;18.43;5.33;;;;;;;16.70;61.68;100915.73;126312;1099;104201;-79
2021/06/05 06:06:37;;;;;;;14.63;4.47;;;;;;;16.84;61.11;100908.02;126196;1099;104153;-81
2021/06/05 06:09:07;;;;;;;17.55;5.10;;;;;;;16.97;61.49;100911.78;126275;1099;104284;-79
2021/06/05 06:11:36;;;;;;;13.27;4.90;;;;;;;17.11;61.08;100907.61;126328;1099;104149;-81
2021/06/05 06:14:05;;;;;;;12.53;5.10;;;;;;;17.26;60.45;100904.28;126313;1099;104243;-81
2021/06/05 06:16:35;;;;;;;15.67;4.73;;;;;;;17.43;61.24;100909.83;126217;1099;104136;-80
2021/06/05 06:19:05;;;;;;;13.33;4.73;;;;;;;17.53;60.47;100902.88;126271;1099;104139;-80
2021/06/05 06:21:34;;;;;;;14.93;5.20;;;;;;;17.63;60.68;100903.92;126262;1099;104141;-79
2021/06/05 06:24:04;;;;;;;13.57;4.97;;;;;;;17.76;60.53;100900.53;126290;1099;104137;-81
2021/06/05 06:26:34;;;;;;;16.60;4.47;;;;;;;17.87;60.31;100892.70;126209;1099;104213;-78
2021/06/05 06:29:12;;;;;;;12.63;4.80;;;;;;;17.99;60.27;100894.66;126208;1099;104153;-79
2021/06/05 06:31:43;;;;;;;7.70;4.43;;;;;;;18.12;59.95;100896.56;126268;1099;104236;-80
2021/06/05 06:34:12;;;;;;;14.07;4.70;;;;;;;18.23;59.77;100889.62;126207;1099;104189;-81
2021/06/05 06:36:43;;;;;;;10.60;4.40;;;;;;;18.33;59.61;100890.60;126277;1098;104162;-78
2021/06/05 06:39:14;;;;;;;11.55;4.30;;;;;;;18.44;59.48;100888.05;126219;1099;104831;-79
2021/06/05 06:41:44;;;;;;;8.00;3.80;;;;;;;18.53;59.46;100877.52;126263;1099;104140;-79
2021/06/05 06:44:13;;;;;;;19.13;4.27;;;;;;;18.68;59.48;100880.30;126325;1099;104162;-79
2021/06/05 06:46:46;;;;;;;19.23;4.67;;;;;;;18.84;58.84;100883.09;126304;1099;104147;-80
2021/06/05 06:49:17;;;;;;;17.83;4.53;;;;;;;18.99;58.64;100882.33;126293;1099;104797;-79
2021/06/05 06:51:47;;;;;;;12.57;4.63;;;;;;;19.13;58.93;100882.43;126291;1098;104424;-79
2021/06/05 06:54:17;;;;;;;16.37;4.60;;;;;;;19.28;58.61;100877.21;126322;1097;104137;-80
2021/06/05 06:56:47;;;;;;;16.30;4.50;;;;;;;19.44;58.85;100871.98;126219;1099;104261;-80
2021/06/05 06:59:16;;;;;;;12.63;4.40;;;;;;;19.61;58.46;100870.28;126288;1099;104399;-79
2021/06/05 07:01:45;;;;;;;13.77;3.90;;;;;;;19.79;58.14;100863.27;126288;1099;104155;-79
2021/06/05 07:04:14;;;;;;;12.83;4.33;;;;;;;19.99;57.69;100874.00;126310;1099;104181;-79
2021/06/05 07:06:43;;;;;;;10.30;4.07;;;;;;;20.18;57.79;100859.85;126248;1099;104169;-80
2021/06/05 07:09:13;;;;;;;12.17;4.50;;;;;;;20.40;57.49;100862.55;126323;1099;104363;-79
2021/06/05 07:11:43;;;;;;;14.10;4.43;;;;;;;20.56;57.37;100863.44;126284;1099;104142;-80
2021/06/05 07:14:12;;;;;;;12.07;3.80;;;;;;;20.75;57.21;100865.23;126321;1099;104253;-79
2021/06/05 07:16:41;;;;;;;9.73;3.77;;;;;;;20.98;56.61;100867.88;126183;1099;104149;-78
2021/06/05 07:19:11;;;;;;;8.73;3.73;;;;;;;21.23;55.75;100869.63;126279;1099;105158;-80
2021/06/05 07:21:41;;;;;;;10.13;3.60;;;;;;;21.39;56.15;100852.66;126332;1096;104306;-79
2021/06/05 07:24:12;;;;;;;6.90;3.50;;;;;;;21.67;54.76;100853.48;126211;1099;104191;-79
2021/06/05 07:26:41;;;;;;;24.83;4.20;;;;;;;21.94;55.36;100851.59;126241;1098;104182;-79
2021/06/05 07:29:12;;;;;;;8.03;3.60;;;;;;;22.11;54.40;100840.80;126285;1099;104149;-78
2021/06/05 07:31:45;;;;;;;10.73;3.80;;;;;;;22.30;53.87;100846.94;126252;1099;104239;-79
2021/06/05 07:34:15;;;;;;;10.08;3.85;;;;;;;22.48;54.42;100834.31;126288;1098;104289;-78
2021/06/05 07:36:48;;;;;;;9.07;4.03;;;;;;;22.63;54.23;100838.66;126273;1099;104146;-79
2021/06/05 07:39:21;;;;;;;8.13;3.35;;;;;;;22.84;53.20;100835.77;126200;1099;104229;-78
2021/06/05 07:41:50;;;;;;;9.50;3.83;;;;;;;23.06;52.77;100835.55;126295;1099;104159;-79
2021/06/05 07:44:21;;;;;;;8.37;3.37;;;;;;;23.24;52.19;100827.36;126308;1099;103813;-80
2021/06/05 07:46:56;;;;;;;8.97;3.70;;;;;;;23.30;52.06;100829.09;126314;1099;104137;-80
2021/06/05 07:49:28;;;;;;;11.03;3.63;;;;;;;23.47;51.77;100826.21;126178;1099;105310;-81
2021/06/05 07:51:58;;;;;;;7.70;3.53;;;;;;;23.69;50.88;100825.02;126285;1099;104238;-81
2021/06/05 07:54:28;;;;;;;9.17;3.30;;;;;;;23.84;50.21;100825.73;126325;1099;104242;-80
2021/06/05 07:56:57;;;;;;;7.73;3.40;;;;;;;23.97;49.66;100819.30;126287;1099;104386;-79
2021/06/05 07:59:29;;;;;;;11.77;3.60;;;;;;;24.17;49.73;100828.86;126189;1099;104287;-78
2021/06/05 08:01:58;;;;;;;7.13;3.40;;;;;;;24.37;49.02;100821.38;126308;1099;104191;-80
2021/06/05 08:04:28;;;;;;;5.07;3.00;;;;;;;24.50;48.16;100823.86;126304;1098;104169;-79
2021/06/05 08:06:57;;;;;;;9.70;3.20;;;;;;;24.63;48.35;100821.88;126285;1099;104133;-80
2021/06/05 08:09:26;;;;;;;9.00;3.33;;;;;;;24.67;48.39;100824.48;126228;1099;104268;-79
2021/06/05 08:11:55;;;;;;;8.87;3.13;;;;;;;24.70;47.18;100819.06;126247;1099;104272;-78
2021/06/05 08:14:24;;;;;;;7.23;3.07;;;;;;;24.83;46.84;100808.11;126178;1099;104341;-79
2021/06/05 08:16:54;;;;;;;7.67;3.03;;;;;;;24.98;46.64;100812.28;126169;1099;104287;-79
2021/06/05 08:19:23;;;;;;;11.43;3.77;;;;;;;25.02;46.83;100811.32;126160;1099;104188;-79
2021/06/05 08:21:52;;;;;;;9.77;3.37;;;;;;;25.19;46.06;100808.31;126197;1099;104290;-80
2021/06/05 08:24:22;;;;;;;7.33;3.30;;;;;;;25.32;46.44;100801.79;126197;1099;104501;-78
2021/06/05 08:26:53;;;;;;;11.60;3.57;;;;;;;25.35;45.98;100796.35;126176;1099;104334;-79
2021/06/05 08:29:22;;;;;;;9.50;3.13;;;;;;;25.36;45.27;100802.63;126133;1099;104171;-79
2021/06/05 08:31:51;;;;;;;8.97;3.30;;;;;;;25.27;44.90;100800.97;126166;1099;104219;-79
2021/06/05 08:34:21;;;;;;;4.93;3.13;;;;;;;25.23;44.62;100802.84;126180;1099;104216;-79
2021/06/05 08:36:51;;;;;;;10.53;3.50;;;;;;;25.06;44.46;100791.56;126153;1099;104149;-80
2021/06/05 08:39:20;;;;;;;10.00;3.30;;;;;;;24.93;43.95;100796.27;126087;1099;104153;-79
2021/06/05 08:41:53;;;;;;;7.53;3.50;;;;;;;24.88;43.94;100799.03;126185;1099;104377;-79
2021/06/05 08:44:34;;;;;;;9.15;3.27;;;;;;;25.01;43.83;100791.66;126160;1099;104816;-79
2021/06/05 08:47:06;;;;;;;7.20;3.07;;;;;;;25.27;43.69;100782.17;126262;1099;104618;-79
2021/06/05 08:49:39;;;;;;;6.23;3.30;;;;;;;25.41;42.79;100779.23;126223;1099;104277;-79
2021/06/05 08:52:09;;;;;;;;;;;;;;;25.41;39.61;100780.11;126270;1099;104213;-82
2021/06/05 08:54:48;;;;;;;6.03;3.17;;;;;;;25.42;41.54;100783.70;126326;1099;104136;-79
2021/06/05 08:57:30;;;;;;;9.10;3.13;;;;;;;25.53;41.85;100772.72;126276;1099;104214;-79
2021/06/05 09:00:09;;;;;;;7.10;2.83;;;;;;;25.73;40.73;100781.22;126261;1099;104563;-79
2021/06/05 09:02:39;;;;;;;5.80;3.00;;;;;;;25.90;40.49;100782.61;126307;1099;104210;-81
2021/06/05 09:05:14;;;;;;;4.93;2.77;;;;;;;26.14;40.91;100775.81;126259;1099;104592;-80
2021/06/05 09:07:44;;;;;;;6.63;2.83;;;;;;;26.22;40.06;100773.81;126288;1099;104262;-79
2021/06/05 09:10:17;;;;;;;4.20;2.80;;;;;;;26.15;39.70;100769.53;126195;1099;104165;-79
2021/06/05 09:12:47;;;;;;;5.70;3.15;;;;;;;25.98;39.37;100786.06;126280;1099;104204;-79
2021/06/05 09:15:23;;;;;;;9.87;3.10;;;;;;;25.74;39.17;100782.09;126262;1099;104165;-78
2021/06/05 09:17:55;;;;;;;8.53;3.17;;;;;;;25.48;38.67;100768.33;126283;1099;104152;-78
2021/06/05 09:20:34;;;;;;;8.83;3.20;;;;;;;25.30;38.53;100774.09;126278;1097;104143;-80
2021/06/05 09:23:21;;;;;;;6.10;2.77;;;;;;;25.19;38.05;100773.41;126314;1099;104139;-79
2021/06/05 09:25:52;;;;;;;4.77;2.53;;;;;;;25.35;38.00;100765.94;126311;1099;104140;-80
2021/06/05 09:28:26;;;;;;;7.00;2.57;;;;;;;25.58;37.44;100754.69;126242;1099;104190;-80
2021/06/05 09:31:15;;;;;;;4.50;2.90;;;;;;;25.76;36.25;100754.27;126143;1099;104630;-78
2021/06/05 09:33:45;;;;;;;4.40;2.87;;;;;;;25.72;36.33;100757.06;126306;1099;104321;-79
2021/06/05 09:36:25;;;;;;;6.80;3.00;;;;;;;25.61;36.75;100744.75;126307;1099;104139;-79
2021/06/05 09:39:06;;;;;;;6.20;3.00;;;;;;;25.60;36.75;100745.69;126310;1098;104144;-79
2021/06/05 09:41:43;;;;;;;6.73;2.93;;;;;;;25.53;36.53;100743.17;126199;1099;104174;-79
2021/06/05 09:44:22;;;;;;;4.67;2.87;;;;;;;25.50;36.22;100737.87;126286;1098;104431;-80
2021/06/05 09:46:59;;;;;;;5.53;2.80;;;;;;;25.51;35.17;100737.84;126292;1099;104179;-80
2021/06/05 09:49:33;;;;;;;7.10;3.00;;;;;;;25.61;35.92;100738.50;126271;1099;104145;-80
2021/06/05 09:52:08;;;;;;;5.63;2.83;;;;;;;25.76;35.57;100742.65;126273;1098;106812;-79
2021/06/05 09:54:40;;;;;;;8.07;2.87;;;;;;;25.82;35.95;100732.63;126306;1099;104210;-79
2021/06/05 09:57:35;;;;;;;9.30;3.00;;;;;;;25.83;35.84;100731.69;126278;1098;104149;-80
2021/06/05 10:00:16;;;;;;;12.43;3.30;;;;;;;25.70;35.04;100729.36;126148;1099;105460;-79
2021/06/05 10:02:48;;;;;;;8.60;2.97;;;;;;;25.63;34.08;100737.56;126307;1098;104146;-79
2021/06/05 10:05:34;;;;;;;6.07;2.60;;;;;;;25.56;33.86;100730.55;126329;1099;104140;-78
2021/06/05 10:08:23;;;;;;;5.57;2.93;;;;;;;25.43;33.43;100734.41;126249;1097;104215;-78
2021/06/05 10:11:00;;;;;;;3.90;2.57;;;;;;;25.32;33.87;100726.59;126176;1099;104306;-79
2021/06/05 10:13:34;;;;;;;6.97;3.00;;;;;;;25.27;34.19;100736.52;126288;1099;104137;-80
2021/06/05 10:16:08;;;;;;;6.90;3.40;;;;;;;25.19;34.12;100733.13;126245;1099;104133;-80
2021/06/05 10:18:43;;;;;;;4.23;2.80;;;;;;;25.07;33.81;100737.84;126287;1098;104136;-79
2021/06/05 10:21:19;;;;;;;4.43;2.63;;;;;;;24.89;33.31;100740.89;126226;1097;104134;-79
2021/06/05 10:23:53;;;;;;;5.17;2.90;;;;;;;24.73;33.80;100743.88;126311;1098;104761;-78
2021/06/05 10:26:27;;;;;;;6.20;3.10;;;;;;;24.68;33.74;100728.77;126246;1099;104268;-81
2021/06/05 10:29:01;;;;;;;8.50;3.20;;;;;;;24.88;33.74;100731.94;126245;1099;104194;-79
2021/06/05 10:31:33;;;;;;;11.53;3.50;;;;;;;25.18;33.84;100725.98;126121;1099;104204;-77
2021/06/05 10:34:09;;;;;;;4.73;2.77;;;;;;;25.34;33.25;100715.81;126273;1099;104187;-80
2021/06/05 10:36:44;;;;;;;8.53;3.07;;;;;;;25.64;33.44;100717.81;126180;1099;104168;-80
2021/06/05 10:39:16;;;;;;;3.77;2.40;;;;;;;25.95;33.55;100716.20;126283;1099;104134;-79
2021/06/05 10:41:52;;;;;;;4.03;2.90;;;;;;;25.90;32.40;100710.03;126234;1099;104586;-79
2021/06/05 10:44:23;;;;;;;4.03;2.90;;;;;;;25.86;32.23;100705.67;126312;1099;104570;-79
2021/06/05 10:47:00;;;;;;;6.60;3.07;;;;;;;25.79;32.87;100715.70;126289;1099;104140;-78
2021/06/05 10:49:36;;;;;;;10.17;3.13;;;;;;;25.75;32.60;100717.56;126282;1099;104159;-79
2021/06/05 10:52:25;;;;;;;10.63;3.23;;;;;;;25.77;33.00;100717.52;126215;1099;104169;-79
2021/06/05 10:54:59;;;;;;;7.53;3.07;;;;;;;25.83;32.00;100707.50;126269;1099;104161;-80
2021/06/05 10:57:36;;;;;;;4.47;2.70;;;;;;;25.91;32.09;100710.00;126279;1099;104261;-80
2021/06/05 11:00:28;;;;;;;5.53;2.93;;;;;;;25.91;31.65;100703.75;126314;1099;104306;-78
2021/06/05 11:02:59;;;;;;;7.13;2.97;;;;;;;25.88;31.77;100714.58;126215;1099;104252;-79
2021/06/05 11:05:44;;;;;;;8.07;3.10;;;;;;;25.93;32.08;100701.89;126290;1099;104243;-79
2021/06/05 11:08:37;;;;;;;6.43;2.90;;;;;;;25.99;32.27;100701.78;126301;1099;104139;-78
2021/06/05 11:11:33;;;;;;;7.20;2.70;;;;;;;25.94;31.69;100712.61;126255;1099;104143;-79
2021/06/05 11:14:04;;;;;;;5.87;3.20;;;;;;;25.72;31.50;100712.25;126229;1099;120087;-79
2021/06/05 11:16:57;;;;;;;8.63;3.27;;;;;;;25.70;31.60;100708.73;126269;1099;104239;-79
2021/06/05 11:19:35;;;;;;;8.23;3.40;;;;;;;25.75;31.47;100701.43;126241;1099;104245;-78
2021/06/05 11:22:06;;;;;;;6.93;3.20;;;;;;;25.89;32.00;100697.54;126205;1099;104143;-78
2021/06/05 11:24:38;;;;;;;5.60;3.27;;;;;;;26.08;32.08;100698.86;126321;1099;104144;-79
2021/06/05 11:27:13;;;;;;;7.40;3.40;;;;;;;26.30;31.62;100698.30;126283;1098;104169;-79
2021/06/05 11:29:55;;;;;;;7.93;3.07;;;;;;;26.37;31.15;100702.61;126247;1098;104322;-80